Time;durP1;ratioP1;P1;durP2;ratioP2;P2;SDS_P1;SDS_P2;PMS_P1;PMS_P2;Temp;Humidity;BMP_temperature;BMP_pressure;BME280_temperature;BME280_humidity;BME280_pressure;Samples;Min_cycle;Max_cycle;Signal;HPM_P1;HPM_P2
2022/11/13 00:01:16;;;;;;;10.60;5.60;;;;;;;-141.28;100.00;50875.91;5111348;28;20893;-75
2022/11/13 00:03:43;;;;;;;9.13;5.43;;;;;;;-141.28;100.00;50923.03;5100184;28;20491;-75
2022/11/13 00:06:11;;;;;;;9.20;5.70;;;;;;;-141.28;100.00;50944.63;5115373;28;20451;-77
2022/11/13 00:08:38;;;;;;;9.40;6.27;;;;;;;-141.28;100.00;50981.91;5112814;28;20452;-76
2022/11/13 00:11:07;;;;;;;11.97;6.90;;;;;;;-141.28;100.00;50970.13;5114830;28;20513;-79
2022/11/13 00:13:34;;;;;;;14.27;6.90;;;;;;;-141.28;100.00;50970.13;5115048;28;20490;-76
2022/11/13 00:16:03;;;;;;;11.13;6.33;;;;;;;-141.28;100.00;51001.56;5114835;28;20499;-79
2022/11/13 00:18:34;;;;;;;11.90;7.53;;;;;;;-141.28;100.00;51001.56;5114947;28;20990;-78
2022/11/13 00:21:05;;;;;;;8.43;5.27;;;;;;;-141.28;100.00;50962.28;5115118;28;20447;-76
2022/11/13 00:23:34;;;;;;;8.53;5.83;;;;;;;-141.28;100.00;51001.56;5101771;28;20488;-77
2022/11/13 00:26:04;;;;;;;11.57;7.00;;;;;;;-141.28;100.00;50985.84;5114970;28;20448;-75
2022/11/13 00:28:31;;;;;;;13.70;7.97;;;;;;;-141.28;100.00;51017.25;5120470;28;20448;-75
2022/11/13 00:30:59;;;;;;;10.03;6.13;;;;;;;-141.28;100.00;51066.34;5121637;28;20457;-76
2022/11/13 00:33:26;;;;;;;10.40;6.17;;;;;;;-141.28;100.00;51064.38;5122062;28;20951;-75
2022/11/13 00:36:01;;;;;;;8.53;6.67;;;;;;;-141.28;100.00;51115.41;5125635;28;20441;-75
2022/11/13 00:38:28;;;;;;;11.37;7.10;;;;;;;-141.28;100.00;51105.59;5124145;28;20448;-75
2022/11/13 00:40:54;;;;;;;11.77;7.47;;;;;;;-141.28;100.00;51091.84;5119181;28;20521;-75
2022/11/13 00:43:21;;;;;;;17.57;7.63;;;;;;;-141.28;100.00;51119.34;5114932;28;20510;-75
2022/11/13 00:45:48;;;;;;;10.93;6.40;;;;;;;-141.28;100.00;51123.28;5114149;28;20452;-77
2022/11/13 00:48:15;;;;;;;11.93;7.50;;;;;;;-141.28;100.00;51127.19;5114434;28;20448;-76
2022/11/13 00:50:42;;;;;;;7.10;4.47;;;;;;;-141.28;100.00;51152.72;5113857;28;20968;-76
2022/11/13 00:53:10;;;;;;;9.47;6.13;;;;;;;-141.28;100.00;51172.34;5114088;28;20460;-76
2022/11/13 00:55:37;;;;;;;19.57;8.63;;;;;;;-141.28;100.00;51197.88;5114329;28;20501;-76
2022/11/13 00:58:04;;;;;;;15.43;7.80;;;;;;;-141.28;100.00;51229.28;5113793;28;20506;-74
2022/11/13 01:00:32;;;;;;;14.77;9.17;;;;;;;-141.28;100.00;51225.34;5114167;28;20524;-75
2022/11/13 01:02:59;;;;;;;16.23;9.13;;;;;;;-141.28;100.00;51299.97;5113799;28;20480;-78
2022/11/13 01:05:27;;;;;;;13.63;8.67;;;;;;;-141.28;100.00;51294.06;5114367;28;20448;-79
2022/11/13 01:07:55;;;;;;;14.10;8.43;;;;;;;-141.28;100.00;51284.25;5101166;28;20445;-76
2022/11/13 01:10:24;;;;;;;12.57;7.93;;;;;;;-141.28;100.00;51294.06;5113707;28;20516;-75
2022/11/13 01:12:51;;;;;;;11.27;7.27;;;;;;;-141.28;100.00;51315.66;5110542;28;20526;-77
2022/11/13 01:15:18;;;;;;;11.07;6.47;;;;;;;-141.28;100.00;51354.94;5104532;28;20869;-75
2022/11/13 01:17:45;;;;;;;9.17;5.67;;;;;;;-141.28;100.00;51374.56;5111882;28;21002;-76
2022/11/13 01:20:13;;;;;;;12.87;7.60;;;;;;;-141.28;100.00;51425.63;5113923;28;20947;-77
2022/11/13 01:22:41;;;;;;;9.63;5.47;;;;;;;-141.28;100.00;51394.22;5112327;28;20987;-77
2022/11/13 01:25:08;;;;;;;9.67;6.70;;;;;;;-141.28;100.00;51462.94;5114683;28;20444;-76
2022/11/13 01:27:37;;;;;;;10.83;6.17;;;;;;;-141.28;100.00;51457.03;5114839;28;20501;-77
2022/11/13 01:30:05;;;;;;;7.83;5.13;;;;;;;-141.28;100.00;51460.97;5115169;28;20509;-76
2022/11/13 01:32:32;;;;;;;11.43;7.03;;;;;;;-141.28;100.00;51464.88;5113014;28;20441;-76
2022/11/13 01:34:59;;;;;;;10.00;6.30;;;;;;;-141.28;100.00;51502.19;5114249;28;20452;-76
2022/11/13 01:37:26;;;;;;;8.50;5.00;;;;;;;-141.28;100.00;51488.44;5113403;28;20445;-77
2022/11/13 01:39:53;;;;;;;11.23;7.33;;;;;;;-141.28;100.00;51504.16;5113365;28;20455;-75
2022/11/13 01:42:20;;;;;;;10.80;7.07;;;;;;;-141.28;100.00;51482.56;5113063;28;20971;-78
2022/11/13 01:44:51;;;;;;;11.53;7.10;;;;;;;-141.28;100.00;51457.03;5113354;28;20436;-75
2022/11/13 01:47:18;;;;;;;14.70;7.83;;;;;;;-141.28;100.00;51447.22;5113157;28;20513;-75
2022/11/13 01:49:48;;;;;;;10.90;6.37;;;;;;;-141.28;100.00;51388.31;5116015;28;20486;-77
2022/11/13 01:52:19;;;;;;;11.63;7.77;;;;;;;-141.28;100.00;51386.34;5113130;28;20911;-76
2022/11/13 01:54:50;;;;;;;17.57;8.90;;;;;;;-141.28;100.00;51201.81;5113005;28;20445;-79
2022/11/13 01:57:19;;;;;;;13.00;8.10;;;;;;;-141.28;100.00;51335.31;5112863;28;20485;-77
2022/11/13 01:59:51;;;;;;;14.77;7.47;;;;;;;-141.28;100.00;51315.66;5112859;28;20452;-75
2022/11/13 02:02:18;;;;;;;15.60;7.87;;;;;;;-141.28;100.00;51246.97;5112685;28;21027;-75
2022/11/13 02:04:47;;;;;;;13.13;8.43;;;;;;;-141.28;100.00;51301.94;5112797;28;20974;-76
2022/11/13 02:07:16;;;;;;;18.30;9.90;;;;;;;-141.28;100.00;51213.56;5112988;28;20441;-77
2022/11/13 02:09:49;;;;;;;16.07;8.83;;;;;;;-141.28;100.00;51272.47;5112920;28;20449;-76
2022/11/13 02:12:23;;;;;;;16.30;9.37;;;;;;;-141.28;100.00;51170.38;5112969;28;20526;-77
2022/11/13 02:14:54;;;;;;;10.83;7.57;;;;;;;-141.28;100.00;51207.69;5113776;28;20459;-76
2022/11/13 02:17:25;;;;;;;14.07;7.30;;;;;;;-141.28;100.00;51195.91;5113583;28;20887;-77
2022/11/13 02:19:55;;;;;;;11.17;7.13;;;;;;;-141.28;100.00;51174.31;5114967;28;20452;-77
2022/11/13 02:22:31;;;;;;;9.27;6.27;;;;;;;-141.28;100.00;51140.94;5118553;28;20962;-76
2022/11/13 02:25:03;;;;;;;11.60;7.20;;;;;;;-141.28;100.00;51099.72;5120047;28;20449;-76
2022/11/13 02:27:34;;;;;;;10.27;7.07;;;;;;;-141.28;100.00;51084.00;5125867;28;20466;-75
2022/11/13 02:30:11;;;;;;;12.27;7.30;;;;;;;-141.28;100.00;51064.38;5125648;28;20800;-75
2022/11/13 02:32:42;;;;;;;9.37;6.97;;;;;;;-141.28;100.00;51021.19;5121606;28;20871;-76
2022/11/13 02:35:09;;;;;;;11.87;7.47;;;;;;;-141.28;100.00;51064.38;5113471;28;20448;-77
2022/11/13 02:37:36;;;;;;;10.20;7.07;;;;;;;-141.28;100.00;51036.88;5112953;28;20444;-76
2022/11/13 02:40:06;;;;;;;10.23;6.97;;;;;;;-141.28;100.00;51052.59;5099649;28;20441;-79
2022/11/13 02:42:33;;;;;;;11.20;6.80;;;;;;;-141.28;100.00;51058.47;5111967;28;20444;-79
2022/11/13 02:45:00;;;;;;;9.77;6.60;;;;;;;-141.28;100.00;51084.00;5112793;28;20464;-76
2022/11/13 02:47:28;;;;;;;10.70;7.07;;;;;;;-141.28;100.00;50991.72;5112120;28;20494;-75
2022/11/13 02:49:55;;;;;;;9.53;6.60;;;;;;;-141.28;100.00;51087.94;5112368;28;20517;-76
2022/11/13 02:52:22;;;;;;;8.23;6.03;;;;;;;-141.28;100.00;51064.38;5112074;28;20452;-76
2022/11/13 02:54:50;;;;;;;10.37;6.27;;;;;;;-141.28;100.00;51064.38;5111604;28;20962;-76
2022/11/13 02:57:18;;;;;;;11.50;7.00;;;;;;;-141.28;100.00;51052.59;5112240;28;20457;-75
2022/11/13 02:59:45;;;;;;;10.73;7.00;;;;;;;-141.28;100.00;51072.22;5112234;28;20456;-79
2022/11/13 03:02:12;;;;;;;12.30;7.03;;;;;;;-141.28;100.00;51076.16;5112091;28;20445;-76
2022/11/13 03:04:41;;;;;;;11.07;6.77;;;;;;;-141.28;100.00;51091.84;5112119;28;20484;-75
2022/11/13 03:07:08;;;;;;;9.10;6.70;;;;;;;-141.28;100.00;51080.06;5113452;28;20955;-77
2022/11/13 03:09:35;;;;;;;10.63;7.00;;;;;;;-141.28;100.00;51099.72;5111825;28;20459;-74
2022/11/13 03:12:02;;;;;;;10.07;6.67;;;;;;;-141.28;100.00;51078.13;5111225;28;20465;-77
2022/11/13 03:14:30;;;;;;;10.37;6.80;;;;;;;-141.28;100.00;51060.44;5111928;28;20527;-75
2022/11/13 03:16:57;;;;;;;11.57;7.20;;;;;;;-141.28;100.00;51042.78;5112124;28;20464;-75
2022/11/13 03:19:24;;;;;;;11.03;6.37;;;;;;;-141.28;100.00;50997.63;5112022;28;20444;-78
2022/11/13 03:21:51;;;;;;;11.73;7.33;;;;;;;-141.28;100.00;51005.47;5110215;28;20868;-75
2022/11/13 03:24:23;;;;;;;14.60;6.77;;;;;;;-141.28;100.00;50836.66;5112510;28;20509;-75
2022/11/13 03:29:53;;;;;;;10.03;7.43;;;;;;;-141.28;100.00;50718.88;5115376;28;20448;-76
2022/11/13 03:32:20;;;;;;;14.37;6.93;;;;;;;-141.28;100.00;50722.78;5111557;28;20509;-79
2022/11/13 03:34:49;;;;;;;9.60;6.70;;;;;;;-141.28;100.00;50734.56;5112697;28;20743;-75
2022/11/13 03:37:17;;;;;;;13.33;7.63;;;;;;;-141.28;100.00;50744.38;5113711;28;20471;-75
2022/11/13 03:39:44;;;;;;;9.73;6.63;;;;;;;-141.28;100.00;50760.09;5113873;28;20533;-74
2022/11/13 03:42:11;;;;;;;12.70;7.73;;;;;;;-141.28;100.00;50773.81;5115517;28;20459;-75
2022/11/13 03:44:38;;;;;;;10.53;6.97;;;;;;;-141.28;100.00;50846.47;5115290;28;20472;-76
2022/11/13 03:47:06;;;;;;;9.30;7.03;;;;;;;-141.28;100.00;50777.75;5115688;28;20452;-77
2022/11/13 03:49:36;;;;;;;15.53;6.77;;;;;;;-141.28;100.00;50756.16;5121169;28;20444;-75
2022/11/13 03:52:03;;;;;;;9.90;7.23;;;;;;;-141.28;100.00;50777.75;5115849;28;20484;-76
2022/11/13 03:54:30;;;;;;;9.70;6.87;;;;;;;-141.28;100.00;50765.97;5115780;28;20489;-77
2022/11/13 03:56:58;;;;;;;15.67;8.33;;;;;;;-141.28;100.00;50636.41;5115364;28;20444;-76
2022/11/13 03:59:24;;;;;;;14.97;7.93;;;;;;;-141.28;100.00;50777.75;5111471;28;20457;-77
2022/11/13 04:01:51;;;;;;;10.87;7.20;;;;;;;-141.28;100.00;50775.78;5106732;28;20475;-75
2022/11/13 04:04:19;;;;;;;8.50;6.70;;;;;;;-141.28;100.00;50828.78;5115960;28;20484;-79
2022/11/13 04:06:46;;;;;;;13.20;8.00;;;;;;;-141.28;100.00;50777.75;5115628;28;20456;-75
2022/11/13 04:09:13;;;;;;;15.03;7.47;;;;;;;-141.28;100.00;50781.69;5115251;28;20441;-79
2022/11/13 04:11:40;;;;;;;13.87;8.77;;;;;;;-141.28;100.00;50815.06;5114946;28;20464;-73
2022/11/13 04:14:07;;;;;;;14.90;8.83;;;;;;;-141.28;100.00;50785.59;5114721;28;20460;-75
2022/11/13 04:16:33;;;;;;;14.27;8.60;;;;;;;-141.28;100.00;50824.88;5114785;28;20493;-75
2022/11/13 04:19:00;;;;;;;13.60;8.53;;;;;;;-141.28;100.00;50844.50;5115018;28;20445;-76
2022/11/13 04:21:29;;;;;;;11.67;8.40;;;;;;;-141.28;100.00;50875.91;5114742;28;20509;-77
2022/11/13 04:23:56;;;;;;;13.03;8.20;;;;;;;-141.28;100.00;50852.34;5116585;28;20476;-74
2022/11/13 04:26:23;;;;;;;11.17;8.07;;;;;;;-141.28;100.00;50868.06;5114957;28;20962;-76
2022/11/13 04:28:51;;;;;;;13.87;8.50;;;;;;;-141.28;100.00;50815.06;5114950;28;20524;-75
2022/11/13 04:31:17;;;;;;;12.33;8.07;;;;;;;-141.28;100.00;50852.34;5114588;28;20758;-75
2022/11/13 04:33:44;;;;;;;12.93;8.20;;;;;;;-141.28;100.00;50877.88;5114706;28;20451;-75
2022/11/13 04:36:11;;;;;;;12.57;8.20;;;;;;;-141.28;100.00;50915.16;5114596;28;20491;-74
2022/11/13 04:38:39;;;;;;;16.27;8.93;;;;;;;-141.28;100.00;50879.84;5114627;28;20465;-75
2022/11/13 04:43:50;;;;;;;12.97;8.80;;;;;;;-141.28;100.00;50868.06;5114407;28;20562;-75
2022/11/13 04:46:24;;;;;;;16.87;10.87;;;;;;;-141.28;100.00;50889.66;5115483;28;20448;-75
2022/11/13 04:48:51;;;;;;;16.97;9.93;;;;;;;-141.28;100.00;50758.13;5115844;28;20457;-76
2022/11/13 04:51:18;;;;;;;14.43;8.77;;;;;;;-141.28;100.00;50877.88;5113681;28;20905;-76
2022/11/13 04:53:46;;;;;;;18.17;10.63;;;;;;;-141.28;100.00;50934.81;5114264;28;20452;-80
2022/11/13 04:56:22;;;;;;;13.97;9.03;;;;;;;-141.28;100.00;50923.03;5117911;28;20441;-75
2022/11/13 04:58:49;;;;;;;18.03;11.63;;;;;;;-141.28;100.00;50899.47;5115873;28;20452;-74
2022/11/13 05:01:16;;;;;;;20.33;12.23;;;;;;;-141.28;100.00;50934.81;5114348;28;20870;-76
2022/11/13 05:03:43;;;;;;;16.63;11.63;;;;;;;-141.28;100.00;50946.59;5114208;28;20487;-75
2022/11/13 05:06:11;;;;;;;20.07;12.77;;;;;;;-141.28;100.00;50970.13;5115542;28;20445;-75
2022/11/13 05:08:38;;;;;;;22.17;13.50;;;;;;;-141.28;100.00;50966.22;5115826;28;20456;-78
2022/11/13 05:11:07;;;;;;;22.33;13.23;;;;;;;-141.28;100.00;50978.00;5107758;28;20449;-76
2022/11/13 05:13:35;;;;;;;17.97;12.20;;;;;;;-141.28;100.00;51001.56;5108594;28;20452;-75
2022/11/13 05:16:03;;;;;;;20.97;12.07;;;;;;;-141.28;100.00;50966.22;5115121;28;21029;-75
2022/11/13 05:18:30;;;;;;;19.23;12.77;;;;;;;-141.28;100.00;50978.00;5114384;28;20476;-75
2022/11/13 05:20:57;;;;;;;19.03;12.70;;;;;;;-141.28;100.00;50993.69;5113738;28;20468;-74
2022/11/13 05:23:24;;;;;;;19.37;12.87;;;;;;;-141.28;100.00;50981.91;5113078;28;20437;-77
2022/11/13 05:25:52;;;;;;;19.30;13.30;;;;;;;-141.28;100.00;50978.00;5114859;28;20453;-74
2022/11/13 05:28:20;;;;;;;22.67;12.63;;;;;;;-141.28;100.00;51031.00;5115045;28;20543;-77
2022/11/13 05:30:47;;;;;;;20.37;14.23;;;;;;;-141.28;100.00;51021.19;5103230;28;20523;-77
2022/11/13 05:33:17;;;;;;;21.30;13.07;;;;;;;-141.28;100.00;50999.59;5113835;28;20448;-79
2022/11/13 05:35:44;;;;;;;20.63;12.57;;;;;;;-141.28;100.00;50954.44;5115816;28;20602;-77
2022/11/13 05:38:11;;;;;;;22.40;13.73;;;;;;;-141.28;100.00;50993.69;5103565;28;20446;-75
2022/11/13 05:40:38;;;;;;;21.23;12.53;;;;;;;-141.28;100.00;51009.41;5113651;28;20444;-76
2022/11/13 05:43:05;;;;;;;15.87;9.87;;;;;;;-141.28;100.00;50999.59;5116341;28;20459;-77
2022/11/13 05:45:33;;;;;;;21.33;11.67;;;;;;;-141.28;100.00;50983.88;5113303;28;20938;-79
2022/11/13 05:48:00;;;;;;;21.37;13.43;;;;;;;-141.28;100.00;50985.84;5113211;28;20507;-76
2022/11/13 05:50:28;;;;;;;23.00;12.23;;;;;;;-141.28;100.00;50942.66;5113672;28;20445;-75
2022/11/13 05:52:57;;;;;;;21.23;12.87;;;;;;;-141.28;100.00;50958.38;5113255;28;20441;-78
2022/11/13 05:55:24;;;;;;;15.87;9.87;;;;;;;-141.28;100.00;50919.09;5113107;28;20509;-78
2022/11/13 05:57:51;;;;;;;19.03;11.60;;;;;;;-141.28;100.00;50891.63;5113087;28;20807;-77
2022/11/13 06:00:19;;;;;;;21.57;14.17;;;;;;;-141.28;100.00;50958.38;5113425;28;20502;-79
2022/11/13 06:02:47;;;;;;;19.13;12.20;;;;;;;-141.28;100.00;50942.66;5112339;28;20459;-76
2022/11/13 06:05:14;;;;;;;19.73;13.33;;;;;;;-141.28;100.00;50974.06;5113388;28;20484;-76
2022/11/13 06:07:41;;;;;;;22.87;12.43;;;;;;;-141.28;100.00;50970.13;5112796;28;20449;-76
2022/11/13 06:10:09;;;;;;;20.07;12.57;;;;;;;-141.28;100.00;50970.13;5112931;28;20447;-79
2022/11/13 06:12:36;;;;;;;16.63;11.00;;;;;;;-141.28;100.00;51005.47;5111743;28;20517;-79
2022/11/13 06:15:03;;;;;;;25.63;13.30;;;;;;;-141.28;100.00;50985.84;5113329;28;20456;-75
2022/11/13 06:17:30;;;;;;;25.03;13.30;;;;;;;-141.28;100.00;50962.28;5112341;28;20501;-79
2022/11/13 06:19:58;;;;;;;23.43;13.57;;;;;;;-141.28;100.00;50875.91;5115913;28;20445;-74
2022/11/13 06:22:27;;;;;;;19.10;11.53;;;;;;;-141.28;100.00;50915.16;5120214;28;20437;-75
2022/11/13 06:24:55;;;;;;;19.07;11.00;;;;;;;-141.28;100.00;50903.41;5120272;28;20487;-74
2022/11/13 06:27:21;;;;;;;21.63;13.43;;;;;;;-141.28;100.00;50925.00;5116396;28;20441;-79
2022/11/13 06:29:48;;;;;;;24.80;14.53;;;;;;;-141.28;100.00;50903.41;5112296;28;20452;-78
2022/11/13 06:32:15;;;;;;;19.87;11.50;;;;;;;-141.28;100.00;50781.69;5112394;28;20943;-78
2022/11/13 06:34:42;;;;;;;21.47;12.93;;;;;;;-141.28;100.00;50844.50;5112095;28;20453;-75
2022/11/13 06:37:10;;;;;;;23.03;13.10;;;;;;;-141.28;100.00;50860.19;5112526;28;20524;-74
2022/11/13 06:39:37;;;;;;;24.03;13.40;;;;;;;-141.28;100.00;50868.06;5113877;28;20441;-77
2022/11/13 06:42:04;;;;;;;21.90;12.17;;;;;;;-141.28;100.00;50828.78;5112225;28;20210;-75
2022/11/13 06:44:32;;;;;;;21.40;12.33;;;;;;;-141.28;100.00;50826.84;5112042;28;20480;-76
2022/11/13 06:47:00;;;;;;;23.20;11.47;;;;;;;-141.28;100.00;50783.66;5112415;28;20816;-77
2022/11/13 06:49:27;;;;;;;21.90;11.40;;;;;;;-141.28;100.00;50765.97;5112011;28;20199;-76
2022/11/13 06:51:54;;;;;;;20.70;9.57;;;;;;;-141.28;100.00;50730.66;5111793;28;20901;-78
2022/11/13 06:54:22;;;;;;;18.60;9.70;;;;;;;-141.28;100.00;50730.66;5111682;28;21036;-75
2022/11/13 06:56:49;;;;;;;24.50;13.10;;;;;;;-141.28;100.00;50667.81;5112158;28;20444;-80
2022/11/13 06:59:15;;;;;;;20.83;12.73;;;;;;;-141.28;100.00;50656.06;5112514;28;20441;-75
2022/11/13 07:01:43;;;;;;;23.10;13.77;;;;;;;-141.28;100.00;50632.50;5113892;28;20844;-76
2022/11/13 07:04:13;;;;;;;23.33;12.93;;;;;;;-141.28;100.00;50614.81;5107144;28;20484;-80
2022/11/13 07:06:40;;;;;;;26.17;13.70;;;;;;;-141.28;100.00;50610.91;5103761;28;20234;-76
2022/11/13 07:09:07;;;;;;;21.70;13.73;;;;;;;-141.28;100.00;50573.59;5111722;28;20642;-75
2022/11/13 07:11:36;;;;;;;23.40;12.93;;;;;;;-141.28;100.00;50563.78;5111542;28;20242;-78
2022/11/13 07:14:02;;;;;;;23.53;14.67;;;;;;;-141.28;100.00;50534.34;5111696;28;20210;-77
2022/11/13 07:16:29;;;;;;;30.73;14.30;;;;;;;-141.28;100.00;50528.47;5111311;28;20959;-76
2022/11/13 07:18:56;;;;;;;20.33;9.83;;;;;;;-141.28;100.00;50538.28;5104853;28;20506;-77
2022/11/13 07:21:24;;;;;;;20.07;11.30;;;;;;;-141.28;100.00;50510.78;5105019;28;20951;-76
2022/11/13 07:23:51;;;;;;;21.57;12.23;;;;;;;-141.28;100.00;50506.88;5110270;28;20975;-76
2022/11/13 07:26:18;;;;;;;20.60;12.13;;;;;;;-141.28;100.00;50516.69;5111823;28;20440;-77
2022/11/13 07:28:48;;;;;;;21.27;12.90;;;;;;;-141.28;100.00;50491.16;5111827;28;20821;-76
2022/11/13 07:31:18;;;;;;;21.63;13.87;;;;;;;-141.28;100.00;50455.84;5111854;28;20203;-79
2022/11/13 07:33:48;;;;;;;18.17;12.13;;;;;;;-141.28;100.00;50469.56;5111949;28;20448;-76
2022/11/13 07:36:15;;;;;;;21.97;13.43;;;;;;;-141.28;100.00;50418.53;5111796;28;20445;-75
2022/11/13 07:38:43;;;;;;;24.57;14.20;;;;;;;-141.28;100.00;50424.44;5111883;28;20453;-75
2022/11/13 07:41:11;;;;;;;23.90;12.37;;;;;;;-141.28;100.00;50394.97;5111369;28;20441;-77
2022/11/13 07:43:39;;;;;;;23.97;12.53;;;;;;;-141.28;100.00;50353.75;5112706;28;20455;-77
2022/11/13 07:46:08;;;;;;;20.23;13.10;;;;;;;-141.28;100.00;50345.91;5111413;28;20572;-78
2022/11/13 07:48:35;;;;;;;17.53;9.67;;;;;;;-141.28;100.00;50287.03;5111494;28;20441;-78
2022/11/13 07:51:04;;;;;;;21.17;12.37;;;;;;;-141.28;100.00;50294.88;5111434;28;20449;-78
2022/11/13 07:53:34;;;;;;;18.07;10.83;;;;;;;-141.28;100.00;50345.91;5111357;28;20455;-76
2022/11/13 07:56:02;;;;;;;17.83;10.13;;;;;;;-141.28;100.00;50247.78;5111517;28;20441;-76
2022/11/13 07:58:31;;;;;;;17.87;11.33;;;;;;;-141.28;100.00;50283.09;5111808;28;20207;-78
2022/11/13 08:01:03;;;;;;;21.93;13.37;;;;;;;-141.28;100.00;50265.44;5111458;28;20857;-80
2022/11/13 08:03:33;;;;;;;21.77;11.97;;;;;;;-141.28;100.00;50232.06;5113739;28;20207;-74
2022/11/13 08:06:01;;;;;;;22.10;14.23;;;;;;;-141.28;100.00;50236.00;5114488;28;20956;-74
2022/11/13 08:08:28;;;;;;;22.73;11.80;;;;;;;-141.28;100.00;50179.09;5103107;28;20802;-76
2022/11/13 08:10:56;;;;;;;17.07;9.23;;;;;;;-141.28;100.00;49941.59;5106258;28;20901;-77
2022/11/13 08:13:24;;;;;;;17.20;9.77;;;;;;;-141.28;100.00;50220.28;5111461;28;20479;-76
2022/11/13 08:15:51;;;;;;;23.63;11.37;;;;;;;-141.28;100.00;50243.84;5110755;28;20461;-76
2022/11/13 08:18:18;;;;;;;20.93;12.43;;;;;;;-141.28;100.00;50243.84;5112768;28;20317;-74
2022/11/13 08:20:47;;;;;;;23.27;13.43;;;;;;;-141.28;100.00;50196.75;5110367;28;20525;-76
2022/11/13 08:23:13;;;;;;;20.83;14.70;;;;;;;-141.28;100.00;50239.94;5109317;28;20567;-76
2022/11/13 08:25:40;;;;;;;27.37;16.73;;;;;;;-141.28;100.00;50263.47;5112920;28;20488;-75
2022/11/13 08:28:08;;;;;;;28.07;18.87;;;;;;;-141.28;100.00;50287.03;5105233;28;20873;-77
2022/11/13 08:30:35;;;;;;;24.17;14.73;;;;;;;-141.28;100.00;50263.47;5114854;28;20191;-77
2022/11/13 08:33:03;;;;;;;19.87;14.10;;;;;;;-141.28;100.00;50247.78;5114999;28;20525;-76
2022/11/13 08:35:31;;;;;;;23.47;14.90;;;;;;;-141.28;100.00;50279.19;5109743;28;20441;-76
2022/11/13 08:38:03;;;;;;;25.03;15.50;;;;;;;-141.28;100.00;50251.69;5107250;28;20993;-75
2022/11/13 08:40:30;;;;;;;19.17;12.23;;;;;;;-141.28;100.00;50188.91;5101674;28;20444;-75
2022/11/13 08:42:59;;;;;;;19.80;8.53;;;;;;;-141.28;100.00;50279.19;5114923;28;20444;-76
2022/11/13 08:45:25;;;;;;;21.30;12.77;;;;;;;-141.28;100.00;50216.38;5114331;28;20550;-75
2022/11/13 08:47:52;;;;;;;20.17;12.17;;;;;;;-141.28;100.00;50281.13;5114416;28;20521;-79
2022/11/13 08:50:20;;;;;;;25.90;14.67;;;;;;;-141.28;100.00;50334.13;5115458;28;20447;-74
2022/11/13 08:52:47;;;;;;;19.20;12.50;;;;;;;-141.28;100.00;50373.38;5122410;28;20448;-74
2022/11/13 08:55:17;;;;;;;22.07;15.63;;;;;;;-141.28;100.00;50345.91;5115194;28;21012;-75
2022/11/13 08:57:43;;;;;;;26.63;16.63;;;;;;;-141.28;100.00;50349.84;5117108;28;20448;-76
2022/11/13 09:00:12;;;;;;;31.13;16.93;;;;;;;-141.28;100.00;50373.38;5114207;28;20966;-76
2022/11/13 09:02:39;;;;;;;26.60;16.23;;;;;;;-141.28;100.00;50389.09;5114052;28;20535;-75
2022/11/13 09:05:07;;;;;;;20.50;14.30;;;;;;;-141.28;100.00;50369.47;5113932;28;20908;-77
2022/11/13 09:07:34;;;;;;;22.07;14.17;;;;;;;-141.28;100.00;50377.31;5113551;28;20479;-76
2022/11/13 09:10:01;;;;;;;21.20;14.10;;;;;;;-141.28;100.00;50398.91;5113944;28;20441;-75
2022/11/13 09:12:29;;;;;;;16.40;9.90;;;;;;;-141.28;100.00;50389.09;5113395;28;20515;-77
2022/11/13 09:14:56;;;;;;;23.23;14.97;;;;;;;-141.28;100.00;50394.97;5113481;28;20974;-77
2022/11/13 09:17:23;;;;;;;24.57;16.77;;;;;;;-141.28;100.00;50402.84;5113509;28;20544;-78
2022/11/13 09:19:51;;;;;;;20.70;14.10;;;;;;;-141.28;100.00;50408.72;5113894;28;20578;-76
2022/11/13 09:22:20;;;;;;;18.57;13.63;;;;;;;-141.28;100.00;50342.00;5112547;28;20441;-75
2022/11/13 09:24:47;;;;;;;23.53;16.47;;;;;;;-141.28;100.00;50353.75;5113114;28;20477;-76
2022/11/13 09:27:14;;;;;;;20.90;12.40;;;;;;;-141.28;100.00;50355.72;5113584;28;20445;-76
2022/11/13 09:29:43;;;;;;;21.87;14.77;;;;;;;-141.28;100.00;50342.00;5112626;28;20449;-75
2022/11/13 09:32:10;;;;;;;23.93;15.07;;;;;;;-141.28;100.00;50393.03;5105678;28;20457;-79
2022/11/13 09:34:37;;;;;;;24.87;16.03;;;;;;;-141.28;100.00;50404.81;5111801;28;20449;-75
2022/11/13 09:37:05;;;;;;;24.30;15.97;;;;;;;-141.28;100.00;50369.47;5112950;28;20203;-75
2022/11/13 09:39:33;;;;;;;21.80;14.13;;;;;;;-141.28;100.00;50145.72;5113191;28;20706;-75
2022/11/13 09:42:05;;;;;;;27.17;15.97;;;;;;;-141.28;100.00;50353.75;5113536;28;20505;-76
2022/11/13 09:44:37;;;;;;;25.60;16.43;;;;;;;-141.28;100.00;50334.13;5113194;28;20203;-76
2022/11/13 09:47:14;;;;;;;26.13;17.10;;;;;;;-141.28;100.00;50263.47;5113683;28;20448;-75
2022/11/13 09:49:45;;;;;;;28.97;17.53;;;;;;;-141.28;100.00;50249.75;5113086;28;20195;-75
2022/11/13 09:52:17;;;;;;;23.03;14.67;;;;;;;-141.28;100.00;50228.16;5113745;28;20787;-78
2022/11/13 09:54:44;;;;;;;24.30;15.17;;;;;;;-141.28;100.00;50141.78;5101161;28;20452;-75
2022/11/13 09:57:22;;;;;;;24.20;14.53;;;;;;;-141.28;100.00;50232.06;5113091;28;20199;-75
2022/11/13 09:59:57;;;;;;;20.63;15.40;;;;;;;-141.28;100.00;50208.53;5113197;28;20199;-79
2022/11/13 10:02:34;;;;;;;21.93;14.60;;;;;;;-141.28;100.00;50177.13;5113376;28;20571;-74
2022/11/13 10:05:06;;;;;;;22.30;14.73;;;;;;;-141.28;100.00;50161.41;5114150;28;20228;-79
2022/11/13 10:07:41;;;;;;;21.47;15.60;;;;;;;-141.28;100.00;50153.56;5112955;28;20469;-76
2022/11/13 10:10:29;;;;;;;22.77;15.63;;;;;;;-141.28;100.00;50141.78;5113025;28;20198;-76
2022/11/13 10:12:59;;;;;;;29.97;14.73;;;;;;;-141.28;100.00;50114.31;5121126;28;20227;-76
2022/11/13 10:15:28;;;;;;;22.40;16.47;;;;;;;-141.28;100.00;50106.47;5123607;28;20662;-73
2022/11/13 10:18:06;;;;;;;24.03;16.67;;;;;;;-141.28;100.00;50104.50;5123212;28;20761;-74
2022/11/13 10:20:37;;;;;;;26.03;16.00;;;;;;;-141.28;100.00;50100.56;5125012;28;20195;-74
2022/11/13 10:23:15;;;;;;;24.93;17.87;;;;;;;-141.28;100.00;50098.63;5124109;28;20480;-76
2022/11/13 10:25:45;;;;;;;22.27;16.73;;;;;;;-141.28;100.00;50110.38;5115567;28;20476;-78
2022/11/13 10:28:18;;;;;;;26.13;15.50;;;;;;;-141.28;100.00;50098.63;5112812;28;20285;-76
2022/11/13 10:31:37;;;;;;;23.07;16.43;;;;;;;-141.28;100.00;50112.34;5112537;28;20203;-76
2022/11/13 10:34:08;;;;;;;24.20;15.23;;;;;;;-141.28;100.00;50090.75;5105105;28;20203;-79
2022/11/13 10:36:44;;;;;;;23.07;13.27;;;;;;;-141.28;100.00;50008.34;5114465;28;20197;-76
2022/11/13 10:39:13;;;;;;;23.27;14.87;;;;;;;-141.28;100.00;50037.78;5114411;28;20199;-76
2022/11/13 10:41:48;;;;;;;20.97;13.80;;;;;;;-141.28;100.00;50067.22;5101313;28;20203;-76
2022/11/13 10:44:34;;;;;;;20.10;14.50;;;;;;;-141.28;100.00;50063.28;5114925;28;20210;-76
2022/11/13 10:47:13;;;;;;;20.53;14.70;;;;;;;-141.28;100.00;50031.88;5112236;28;20238;-76
2022/11/13 10:49:43;;;;;;;21.20;14.30;;;;;;;-141.28;100.00;50116.28;5111682;28;20191;-76
2022/11/13 10:52:18;;;;;;;23.37;15.10;;;;;;;-141.28;100.00;50110.38;5115290;28;20203;-76
2022/11/13 10:54:46;;;;;;;20.70;15.60;;;;;;;-141.28;100.00;50110.38;5100510;28;20233;-77
2022/11/13 10:57:28;;;;;;;20.57;14.97;;;;;;;-141.28;100.00;50118.25;5112033;28;20666;-77
2022/11/13 10:59:56;;;;;;;20.33;14.43;;;;;;;-141.28;100.00;50126.09;5112015;28;20195;-75
2022/11/13 11:02:26;;;;;;;23.60;14.53;;;;;;;-141.28;100.00;50118.25;5111473;28;20203;-79
2022/11/13 11:05:04;;;;;;;22.60;15.20;;;;;;;-141.28;100.00;50165.34;5111892;28;20195;-78
2022/11/13 11:07:39;;;;;;;23.10;15.37;;;;;;;-141.28;100.00;50159.44;5111594;28;20502;-77
2022/11/13 11:10:20;;;;;;;22.60;15.23;;;;;;;-141.28;100.00;50318.44;5111613;28;20731;-75
2022/11/13 11:12:52;;;;;;;24.50;14.77;;;;;;;-141.28;100.00;50365.53;5111943;28;20692;-75